Time;durP1;ratioP1;P1;durP2;ratioP2;P2;SDS_P1;SDS_P2;PMS_P1;PMS_P2;Temp;Humidity;BMP_temperature;BMP_pressure;BME280_temperature;BME280_humidity;BME280_pressure;Samples;Min_cycle;Max_cycle;Signal;HPM_P1;HPM_P2
2021/09/06 00:00:57;;;;;;;;;15.25;14.25;;;;;;;;4988700;28;45454;-75
2021/09/06 00:03:22;;;;;;;;;17.00;15.75;;;;;;;;4989928;28;45345;-75
2021/09/06 00:05:48;;;;;;;;;14.25;13.25;;;;;;;;4990395;28;45272;-75
2021/09/06 00:08:13;;;;;;;;;18.00;16.75;;;;;;;;4991503;28;45544;-75
2021/09/06 00:10:43;;;;;;;;;16.25;16.25;;;;;;;;4990016;28;45458;-75
2021/09/06 00:13:09;;;;;;;;;14.75;13.75;;;;;;;;4992978;28;45501;-75
2021/09/06 00:15:35;;;;;;;;;15.25;15.25;;;;;;;;4992812;28;45581;-75
2021/09/06 00:18:02;;;;;;;;;15.00;14.25;;;;;;;;4992327;28;46314;-75
2021/09/06 00:20:27;;;;;;;;;15.00;14.25;;;;;;;;4994990;28;45313;-76
2021/09/06 00:22:53;;;;;;;;;17.50;16.75;;;;;;;;4992638;28;45600;-75
2021/09/06 00:25:20;;;;;;;;;16.00;16.00;;;;;;;;4974693;28;45252;-75
2021/09/06 00:27:45;;;;;;;;;20.00;17.00;;;;;;;;4992357;28;47443;-75
2021/09/06 00:30:10;;;;;;;;;15.00;15.00;;;;;;;;4992599;28;45438;-75
2021/09/06 00:32:36;;;;;;;;;6.50;5.75;;;;;;;;4994073;27;45268;-75
2021/09/06 00:35:01;;;;;;;;;17.75;16.25;;;;;;;;4993053;28;45461;-74
2021/09/06 00:37:26;;;;;;;;;15.75;15.25;;;;;;;;4990808;28;46242;-75
2021/09/06 00:39:51;;;;;;;;;17.75;14.75;;;;;;;;4990372;28;45544;-75
2021/09/06 00:42:17;;;;;;;;;14.50;14.00;;;;;;;;4992878;28;45363;-74
2021/09/06 00:44:42;;;;;;;;;16.25;14.00;;;;;;;;4993989;28;45317;-76
2021/09/06 00:47:07;;;;;;;;;14.50;14.50;;;;;;;;4992843;28;47452;-74
2021/09/06 00:49:32;;;;;;;;;15.00;15.00;;;;;;;;4992406;28;45487;-75
2021/09/06 00:51:58;;;;;;;;;17.50;17.50;;;;;;;;4992371;28;45435;-74
2021/09/06 00:54:23;;;;;;;;;14.25;13.00;;;;;;;;4974642;28;45524;-75
2021/09/06 00:56:49;;;;;;;;;15.75;13.25;;;;;;;;4992602;28;46181;-75
2021/09/06 00:59:14;;;;;;;;;16.00;14.50;;;;;;;;4994163;28;45393;-74
2021/09/06 01:01:40;;;;;;;;;20.25;18.00;;;;;;;;4991700;28;45448;-75
2021/09/06 01:04:05;;;;;;;;;15.25;14.50;;;;;;;;4992254;28;45396;-74
2021/09/06 01:06:30;;;;;;;;;16.75;14.75;;;;;;;;4974813;28;45552;-75
2021/09/06 01:08:55;;;;;;;;;16.00;15.00;;;;;;;;4992322;28;45556;-76
2021/09/06 01:11:20;;;;;;;;;14.75;13.75;;;;;;;;4994404;28;45484;-74
2021/09/06 01:13:46;;;;;;;;;17.50;16.50;;;;;;;;4992151;28;45513;-73
2021/09/06 01:16:11;;;;;;;;;14.75;14.00;;;;;;;;4989914;28;45583;-73
2021/09/06 01:18:36;;;;;;;;;19.75;15.25;;;;;;;;4990510;28;45481;-75
2021/09/06 01:21:01;;;;;;;;;16.25;16.00;;;;;;;;4992236;28;45418;-73
2021/09/06 01:23:26;;;;;;;;;14.25;14.25;;;;;;;;4992876;28;45459;-73
2021/09/06 01:25:52;;;;;;;;;16.25;16.25;;;;;;;;4991830;28;45465;-73
2021/09/06 01:28:17;;;;;;;;;19.00;15.50;;;;;;;;4991773;28;45285;-73
2021/09/06 01:30:43;;;;;;;;;19.75;17.75;;;;;;;;4991749;28;45527;-73
2021/09/06 01:33:08;;;;;;;;;16.75;16.75;;;;;;;;4992084;28;45350;-73
2021/09/06 01:35:33;;;;;;;;;16.75;15.00;;;;;;;;4993908;28;45970;-73
2021/09/06 01:37:58;;;;;;;;;14.75;14.75;;;;;;;;4991925;28;45438;-74
2021/09/06 01:40:25;;;;;;;;;16.75;14.00;;;;;;;;4991682;28;45375;-73
2021/09/06 01:42:50;;;;;;;;;15.25;14.25;;;;;;;;4991606;28;45418;-73
2021/09/06 01:45:15;;;;;;;;;16.25;16.25;;;;;;;;4991288;28;46061;-73
2021/09/06 01:47:40;;;;;;;;;22.00;18.00;;;;;;;;4992661;28;45616;-74
2021/09/06 01:50:06;;;;;;;;;18.00;17.00;;;;;;;;4992491;28;45446;-73
2021/09/06 01:52:31;;;;;;;;;20.25;16.25;;;;;;;;4991315;28;45424;-73
2021/09/06 01:54:57;;;;;;;;;15.25;15.25;;;;;;;;4989633;28;47036;-73
2021/09/06 01:57:22;;;;;;;;;15.50;14.00;;;;;;;;4990146;28;45279;-73
2021/09/06 01:59:47;;;;;;;;;19.00;18.50;;;;;;;;4992055;28;45461;-73
2021/09/06 02:02:12;;;;;;;;;16.50;16.50;;;;;;;;4993076;28;45512;-74
2021/09/06 02:04:37;;;;;;;;;16.00;15.50;;;;;;;;4991331;28;45987;-73
2021/09/06 02:07:03;;;;;;;;;13.25;12.25;;;;;;;;4991561;28;45290;-73
2021/09/06 02:09:28;;;;;;;;;16.75;14.50;;;;;;;;4991835;28;45437;-73
2021/09/06 02:11:53;;;;;;;;;20.25;18.75;;;;;;;;4991735;28;45414;-73
2021/09/06 02:14:18;;;;;;;;;17.50;17.50;;;;;;;;4993164;28;46053;-73
2021/09/06 02:16:43;;;;;;;;;18.00;16.25;;;;;;;;4991378;28;45431;-73
2021/09/06 02:19:09;;;;;;;;;16.50;15.00;;;;;;;;4991902;28;45272;-73
2021/09/06 02:21:34;;;;;;;;;16.75;16.75;;;;;;;;4991514;28;45344;-72
2021/09/06 02:24:01;;;;;;;;;17.00;17.00;;;;;;;;4991399;28;46205;-73
2021/09/06 02:26:27;;;;;;;;;15.75;15.75;;;;;;;;4993327;28;45314;-73
2021/09/06 02:28:52;;;;;;;;;19.25;17.25;;;;;;;;4990832;28;45378;-73
2021/09/06 02:31:17;;;;;;;;;15.75;14.50;;;;;;;;4991382;28;45290;-72
2021/09/06 02:33:42;;;;;;;;;18.00;16.75;;;;;;;;4988981;28;45564;-72
2021/09/06 02:36:08;;;;;;;;;18.50;18.00;;;;;;;;4989853;28;45569;-75
2021/09/06 02:38:33;;;;;;;;;17.00;16.50;;;;;;;;4993535;28;45363;-75
2021/09/06 02:40:58;;;;;;;;;18.25;17.25;;;;;;;;4990943;28;45633;-74
2021/09/06 02:43:23;;;;;;;;;16.75;14.75;;;;;;;;4990784;28;46184;-75
2021/09/06 02:45:48;;;;;;;;;17.25;16.00;;;;;;;;4991152;28;45229;-75
2021/09/06 02:48:14;;;;;;;;;18.75;18.50;;;;;;;;4991012;28;45378;-75
2021/09/06 02:50:39;;;;;;;;;14.25;14.25;;;;;;;;4992538;28;45497;-75
2021/09/06 02:53:04;;;;;;;;;18.50;17.00;;;;;;;;4991341;28;47194;-75
2021/09/06 02:55:29;;;;;;;;;18.50;18.50;;;;;;;;4989150;28;45299;-75
2021/09/06 02:57:54;;;;;;;;;15.00;15.00;;;;;;;;4990355;28;45517;-74
2021/09/06 03:00:20;;;;;;;;;18.75;17.50;;;;;;;;4990760;28;45216;-74
2021/09/06 03:02:45;;;;;;;;;14.75;13.75;;;;;;;;4991488;28;46320;-74
2021/09/06 03:05:11;;;;;;;;;16.25;16.25;;;;;;;;4992169;28;45468;-74
2021/09/06 03:07:36;;;;;;;;;16.50;16.50;;;;;;;;4990761;28;45390;-74
2021/09/06 03:10:02;;;;;;;;;15.50;15.50;;;;;;;;4990887;28;45514;-74
2021/09/06 03:12:27;;;;;;;;;23.25;19.50;;;;;;;;4988726;28;47305;-74
2021/09/06 03:14:52;;;;;;;;;18.25;16.75;;;;;;;;4990711;28;45564;-75
2021/09/06 03:17:17;;;;;;;;;18.25;15.00;;;;;;;;4991028;28;45319;-74
2021/09/06 03:19:43;;;;;;;;;16.00;16.00;;;;;;;;4990263;28;45630;-73
2021/09/06 03:22:08;;;;;;;;;13.00;13.00;;;;;;;;4989967;28;45954;-74
2021/09/06 03:24:33;;;;;;;;;15.50;15.50;;;;;;;;4990418;28;45355;-74
2021/09/06 03:26:58;;;;;;;;;22.50;18.75;;;;;;;;4989941;28;45555;-74
2021/09/06 03:29:24;;;;;;;;;30.25;29.00;;;;;;;;4974662;28;45440;-74
2021/09/06 03:31:49;;;;;;;;;21.75;19.75;;;;;;;;4989758;28;46112;-74
2021/09/06 03:34:14;;;;;;;;;21.75;21.75;;;;;;;;4989968;28;45577;-74
2021/09/06 03:36:39;;;;;;;;;17.75;17.75;;;;;;;;4989911;28;45421;-74
2021/09/06 03:39:05;;;;;;;;;20.25;18.25;;;;;;;;4990464;28;45493;-74
2021/09/06 03:41:32;;;;;;;;;16.75;16.50;;;;;;;;4992466;28;46191;-74
2021/09/06 03:43:57;;;;;;;;;17.25;17.25;;;;;;;;4989878;28;45350;-74
2021/09/06 03:46:23;;;;;;;;;19.50;19.50;;;;;;;;4990466;28;45565;-74
2021/09/06 03:48:48;;;;;;;;;18.25;16.25;;;;;;;;4992631;28;45224;-73
2021/09/06 03:51:13;;;;;;;;;20.25;15.75;;;;;;;;4991282;28;46539;-73
2021/09/06 03:53:38;;;;;;;;;22.25;18.75;;;;;;;;4994167;28;45446;-73
2021/09/06 03:56:03;;;;;;;;;16.50;16.50;;;;;;;;4992156;28;45594;-74
2021/09/06 03:58:29;;;;;;;;;22.50;21.75;;;;;;;;4992663;28;45344;-73
2021/09/06 04:00:54;;;;;;;;;18.50;16.50;;;;;;;;4992365;28;47048;-74
2021/09/06 04:03:19;;;;;;;;;24.00;21.00;;;;;;;;4975060;28;45435;-74
2021/09/06 04:05:44;;;;;;;;;19.50;18.50;;;;;;;;4993496;28;45368;-74
2021/09/06 04:08:10;;;;;;;;;22.75;20.75;;;;;;;;4994300;28;45371;-74
2021/09/06 04:10:35;;;;;;;;;21.00;19.25;;;;;;;;4991760;28;46043;-74
2021/09/06 04:13:00;;;;;;;;;60.75;49.50;;;;;;;;4992112;28;45279;-74
2021/09/06 04:15:25;;;;;;;;;40.50;34.75;;;;;;;;4992161;28;45387;-74
2021/09/06 04:17:51;;;;;;;;;20.75;19.25;;;;;;;;4993348;28;45424;-74
2021/09/06 04:20:16;;;;;;;;;24.00;21.75;;;;;;;;4996022;28;45419;-74
2021/09/06 04:22:41;;;;;;;;;25.50;25.25;;;;;;;;4992489;28;45478;-74
2021/09/06 04:25:07;;;;;;;;;25.25;24.50;;;;;;;;4992386;28;45315;-74
2021/09/06 04:27:32;;;;;;;;;23.00;22.00;;;;;;;;4992383;28;45563;-73
2021/09/06 04:29:58;;;;;;;;;28.75;24.00;;;;;;;;4991427;28;46140;-74
2021/09/06 04:32:23;;;;;;;;;19.25;15.50;;;;;;;;4992694;28;45412;-74
2021/09/06 04:34:48;;;;;;;;;21.25;20.75;;;;;;;;4990467;28;45561;-74
2021/09/06 04:37:13;;;;;;;;;36.25;32.50;;;;;;;;4992131;28;45440;-74
2021/09/06 04:39:38;;;;;;;;;23.75;22.25;;;;;;;;4991006;28;47269;-74
2021/09/06 04:42:04;;;;;;;;;27.50;27.50;;;;;;;;4991578;28;45255;-74
2021/09/06 04:44:29;;;;;;;;;29.00;26.25;;;;;;;;4994025;28;45229;-74
2021/09/06 04:46:54;;;;;;;;;21.75;19.75;;;;;;;;4991615;28;45395;-74
2021/09/06 04:49:19;;;;;;;;;30.00;29.00;;;;;;;;4991554;28;45436;-74
2021/09/06 04:51:44;;;;;;;;;26.50;25.25;;;;;;;;4989087;27;45743;-73
2021/09/06 04:54:10;;;;;;;;;22.00;22.00;;;;;;;;4987335;28;45685;-73
2021/09/06 04:56:35;;;;;;;;;23.75;23.25;;;;;;;;4994008;28;45275;-72
2021/09/06 04:59:00;;;;;;;;;33.50;27.00;;;;;;;;4992181;28;47072;-75
2021/09/06 05:01:25;;;;;;;;;23.25;21.75;;;;;;;;4991224;28;45478;-75
2021/09/06 05:03:51;;;;;;;;;24.75;22.25;;;;;;;;4990121;28;45317;-75
2021/09/06 05:06:17;;;;;;;;;25.25;24.25;;;;;;;;4991294;28;45569;-75
2021/09/06 05:08:42;;;;;;;;;30.50;26.75;;;;;;;;4991256;28;46256;-75
2021/09/06 05:11:07;;;;;;;;;24.00;21.75;;;;;;;;4991042;28;45392;-74
2021/09/06 05:13:32;;;;;;;;;27.00;25.25;;;;;;;;4989979;28;45608;-75
2021/09/06 05:15:58;;;;;;;;;23.75;22.00;;;;;;;;4989364;28;45278;-74
2021/09/06 05:18:23;;;;;;;;;33.25;31.75;;;;;;;;4990825;28;46118;-73
2021/09/06 05:20:49;;;;;;;;;28.75;25.50;;;;;;;;4991337;28;45530;-75
2021/09/06 05:23:15;;;;;;;;;29.25;25.50;;;;;;;;4990660;27;45287;-73
2021/09/06 05:25:40;;;;;;;;;26.75;24.75;;;;;;;;4990880;28;45457;-78
2021/09/06 05:28:05;;;;;;;;;25.00;22.75;;;;;;;;5003947;27;46952;-75
2021/09/06 05:30:31;;;;;;;;;29.25;28.00;;;;;;;;4990071;28;45154;-75
2021/09/06 05:32:56;;;;;;;;;25.25;25.25;;;;;;;;4990374;28;45494;-75
2021/09/06 05:35:21;;;;;;;;;34.25;29.00;;;;;;;;4994180;28;45350;-76
2021/09/06 05:37:46;;;;;;;;;35.00;29.75;;;;;;;;4990187;28;45498;-76
2021/09/06 05:40:12;;;;;;;;;30.00;28.50;;;;;;;;4990711;28;45566;-75
2021/09/06 05:42:37;;;;;;;;;27.25;24.75;;;;;;;;4973256;28;45395;-74
2021/09/06 05:45:03;;;;;;;;;33.00;27.50;;;;;;;;4975023;28;45541;-77
2021/09/06 05:47:28;;;;;;;;;36.75;31.25;;;;;;;;4992520;28;45787;-75
2021/09/06 05:49:53;;;;;;;;;27.25;24.25;;;;;;;;4990713;28;45422;-75
2021/09/06 05:52:18;;;;;;;;;30.75;25.75;;;;;;;;4989261;28;45418;-75
2021/09/06 05:54:44;;;;;;;;;37.75;33.75;;;;;;;;4990369;28;45437;-74
2021/09/06 05:57:09;;;;;;;;;36.00;32.25;;;;;;;;4990568;28;46157;-74
2021/09/06 05:59:34;;;;;;;;;29.00;26.50;;;;;;;;4992292;28;45430;-75
2021/09/06 06:01:59;;;;;;;;;23.50;22.00;;;;;;;;4991611;28;45453;-73
2021/09/06 06:04:25;;;;;;;;;44.75;36.00;;;;;;;;4989980;28;45473;-74
2021/09/06 06:06:50;;;;;;;;;24.75;24.75;;;;;;;;4989292;28;46312;-76
2021/09/06 06:09:15;;;;;;;;;31.50;29.00;;;;;;;;4988702;28;45533;-76
2021/09/06 06:11:41;;;;;;;;;26.25;23.25;;;;;;;;4991620;28;45446;-74
2021/09/06 06:14:09;;;;;;;;;26.50;24.75;;;;;;;;4990190;28;45433;-74
2021/09/06 06:16:35;;;;;;;;;21.25;20.50;;;;;;;;4989110;28;45549;-75
2021/09/06 06:19:00;;;;;;;;;24.00;24.00;;;;;;;;4989253;28;46004;-75
2021/09/06 06:21:25;;;;;;;;;28.75;26.50;;;;;;;;4989542;28;45213;-74
2021/09/06 06:23:51;;;;;;;;;24.25;20.50;;;;;;;;4989900;28;45410;-74
2021/09/06 06:26:16;;;;;;;;;22.75;22.75;;;;;;;;4991479;28;46147;-73
2021/09/06 06:28:41;;;;;;;;;29.75;25.00;;;;;;;;4987872;28;45462;-75
2021/09/06 06:31:07;;;;;;;;;36.50;33.00;;;;;;;;4987900;28;45450;-73
2021/09/06 06:33:32;;;;;;;;;29.75;25.25;;;;;;;;4989177;28;45434;-74
2021/09/06 06:35:58;;;;;;;;;23.75;21.25;;;;;;;;4989006;28;47074;-75
2021/09/06 06:38:23;;;;;;;;;28.00;27.00;;;;;;;;4991093;28;45418;-75
2021/09/06 06:40:48;;;;;;;;;22.00;20.00;;;;;;;;4971334;28;45394;-75
2021/09/06 06:43:14;;;;;;;;;26.00;22.00;;;;;;;;4989192;28;45471;-75
2021/09/06 06:45:39;;;;;;;;;22.25;22.25;;;;;;;;4987490;28;47284;-76
2021/09/06 06:48:04;;;;;;;;;26.25;24.75;;;;;;;;4988688;28;45502;-76
2021/09/06 06:50:29;;;;;;;;;25.25;22.75;;;;;;;;4990680;28;45360;-75
2021/09/06 06:52:55;;;;;;;;;22.50;22.50;;;;;;;;4970357;28;45399;-75
2021/09/06 06:55:20;;;;;;;;;22.25;21.75;;;;;;;;4988972;28;45520;-74
2021/09/06 06:57:45;;;;;;;;;25.75;22.50;;;;;;;;4988864;28;45491;-75
2021/09/06 07:00:11;;;;;;;;;25.00;23.75;;;;;;;;4988815;28;45359;-75
2021/09/06 07:02:36;;;;;;;;;30.25;27.00;;;;;;;;4990551;28;45476;-71
2021/09/06 07:05:01;;;;;;;;;33.75;31.50;;;;;;;;4988996;28;46053;-75
2021/09/06 07:07:26;;;;;;;;;37.50;34.50;;;;;;;;4987218;28;45314;-74
2021/09/06 07:09:52;;;;;;;;;34.25;31.75;;;;;;;;4987515;28;45339;-74
2021/09/06 07:12:17;;;;;;;;;32.75;31.75;;;;;;;;4987202;28;45368;-75
2021/09/06 07:14:42;;;;;;;;;36.00;30.00;;;;;;;;4989814;28;45596;-74
2021/09/06 07:17:07;;;;;;;;;33.75;30.00;;;;;;;;4989985;28;45310;-74
2021/09/06 07:19:32;;;;;;;;;31.00;30.75;;;;;;;;4988930;28;45345;-75
2021/09/06 07:21:58;;;;;;;;;33.50;31.50;;;;;;;;4987807;28;46774;-74
2021/09/06 07:24:23;;;;;;;;;27.50;26.50;;;;;;;;4989303;28;45369;-76
2021/09/06 07:26:48;;;;;;;;;33.50;30.75;;;;;;;;4989310;28;45331;-73
2021/09/06 07:29:13;;;;;;;;;32.00;30.00;;;;;;;;4990214;28;45266;-75
2021/09/06 07:31:39;;;;;;;;;27.75;25.50;;;;;;;;4970336;28;45449;-73
2021/09/06 07:34:04;;;;;;;;;25.00;25.00;;;;;;;;4988573;28;47268;-74
2021/09/06 07:36:32;;;;;;;;;29.50;26.50;;;;;;;;4988917;28;45340;-74
2021/09/06 07:38:57;;;;;;;;;32.50;28.00;;;;;;;;4989225;28;45549;-74
2021/09/06 07:41:23;;;;;;;;;26.25;24.50;;;;;;;;4990883;28;45355;-75
2021/09/06 07:43:48;;;;;;;;;25.00;22.00;;;;;;;;4989073;28;46515;-74
2021/09/06 07:46:13;;;;;;;;;27.25;24.00;;;;;;;;4986466;28;45494;-74
2021/09/06 07:48:39;;;;;;;;;29.50;26.00;;;;;;;;4987973;28;45369;-75
2021/09/06 07:51:04;;;;;;;;;24.75;23.00;;;;;;;;4989630;28;45314;-72
2021/09/06 07:53:29;;;;;;;;;28.50;25.75;;;;;;;;4990804;28;46245;-74
2021/09/06 07:55:54;;;;;;;;;63.75;50.75;;;;;;;;4988975;28;45409;-74
2021/09/06 07:58:19;;;;;;;;;19.00;19.00;;;;;;;;4988825;28;45440;-74
2021/09/06 08:00:46;;;;;;;;;27.00;26.00;;;;;;;;4988884;28;45404;-74
2021/09/06 08:03:11;;;;;;;;;28.00;25.50;;;;;;;;4989159;28;47378;-73
2021/09/06 08:05:37;;;;;;;;;24.50;21.25;;;;;;;;4990695;28;45320;-74
2021/09/06 08:08:02;;;;;;;;;29.50;25.00;;;;;;;;4989267;28;46016;-73
2021/09/06 08:10:27;;;;;;;;;24.00;22.75;;;;;;;;4971148;28;45538;-73
2021/09/06 08:12:52;;;;;;;;;24.75;21.75;;;;;;;;4988290;28;47099;-73
2021/09/06 08:15:18;;;;;;;;;22.50;21.00;;;;;;;;4988338;28;45872;-72
2021/09/06 08:17:43;;;;;;;;;23.75;21.50;;;;;;;;4989579;28;45449;-73
2021/09/06 08:20:12;;;;;;;;;24.75;23.00;;;;;;;;4989712;28;45363;-73
2021/09/06 08:22:38;;;;;;;;;22.25;22.25;;;;;;;;4988690;28;45589;-73
2021/09/06 08:25:04;;;;;;;;;26.00;24.00;;;;;;;;4987092;28;45530;-73
2021/09/06 08:27:29;;;;;;;;;24.25;22.50;;;;;;;;4969535;28;45536;-72
2021/09/06 08:29:54;;;;;;;;;24.25;23.25;;;;;;;;4988405;28;45378;-75
2021/09/06 08:32:20;;;;;;;;;17.75;17.75;;;;;;;;4991346;28;47093;-73
2021/09/06 08:34:48;;;;;;;;;24.00;22.75;;;;;;;;4991395;28;45579;-74
2021/09/06 08:37:13;;;;;;;;;22.00;20.00;;;;;;;;4991451;28;46515;-73
2021/09/06 08:39:38;;;;;;;;;24.00;21.25;;;;;;;;4991126;28;45398;-73
2021/09/06 08:42:04;;;;;;;;;21.25;20.25;;;;;;;;4989843;28;45775;-77
2021/09/06 08:44:29;;;;;;;;;26.75;23.00;;;;;;;;4993263;28;45471;-74
2021/09/06 08:46:54;;;;;;;;;31.25;30.50;;;;;;;;4990897;28;45549;-74
2021/09/06 08:49:20;;;;;;;;;26.50;25.75;;;;;;;;4991533;28;45292;-73
2021/09/06 08:51:46;;;;;;;;;27.00;25.00;;;;;;;;4991089;28;45384;-72
2021/09/06 08:54:11;;;;;;;;;29.75;26.00;;;;;;;;4990600;28;45394;-73
2021/09/06 08:56:38;;;;;;;;;36.75;33.00;;;;;;;;4993042;28;45115;-73
2021/09/06 08:59:04;;;;;;;;;35.50;30.25;;;;;;;;4989962;28;45560;-73
2021/09/06 09:01:39;;;;;;;;;23.00;20.75;;;;;;;;4990746;28;46044;-73
2021/09/06 09:04:33;;;;;;;;;30.50;29.00;;;;;;;;4989635;28;45433;-73
2021/09/06 09:06:59;;;;;;;;;27.00;27.00;;;;;;;;4976388;28;45495;-72
2021/09/06 09:09:26;;;;;;;;;26.00;24.50;;;;;;;;4991438;28;45534;-73
2021/09/06 09:12:03;;;;;;;;;20.75;19.25;;;;;;;;4991373;28;46062;-73
2021/09/06 09:14:29;;;;;;;;;24.00;23.75;;;;;;;;4992443;28;45450;-73
2021/09/06 09:16:55;;;;;;;;;35.75;29.50;;;;;;;;4990797;28;45331;-72
2021/09/06 09:19:22;;;;;;;;;23.75;21.25;;;;;;;;4990616;28;45492;-74
2021/09/06 09:21:54;;;;;;;;;18.00;17.00;;;;;;;;4990795;28;46184;-73
2021/09/06 09:24:21;;;;;;;;;30.50;28.00;;;;;;;;4973791;28;45604;-74
2021/09/06 09:26:57;;;;;;;;;24.00;23.25;;;;;;;;4992869;28;45390;-75
2021/09/06 09:29:22;;;;;;;;;21.00;20.75;;;;;;;;4973696;28;45551;-74
2021/09/06 09:31:51;;;;;;;;;25.00;23.00;;;;;;;;4990703;28;46491;-73
2021/09/06 09:34:16;;;;;;;;;20.50;18.00;;;;;;;;4990508;28;45485;-74
2021/09/06 09:36:42;;;;;;;;;23.00;20.50;;;;;;;;4991082;28;45399;-74
2021/09/06 09:39:11;;;;;;;;;21.50;18.25;;;;;;;;4990877;28;45348;-73
2021/09/06 09:41:37;;;;;;;;;24.75;21.50;;;;;;;;4991892;28;45436;-74
2021/09/06 09:44:06;;;;;;;;;27.50;27.50;;;;;;;;4987794;28;45366;-74
2021/09/06 09:46:31;;;;;;;;;22.00;21.00;;;;;;;;4988315;28;45500;-74
2021/09/06 09:49:06;;;;;;;;;33.75;29.50;;;;;;;;4989481;28;45558;-72
2021/09/06 09:51:32;;;;;;;;;31.25;26.75;;;;;;;;4990125;28;46366;-72
2021/09/06 09:54:01;;;;;;;;;27.00;26.25;;;;;;;;4990286;28;45434;-68
2021/09/06 09:56:27;;;;;;;;;41.50;33.50;;;;;;;;4992485;28;45818;-73
2021/09/06 09:58:52;;;;;;;;;26.75;26.00;;;;;;;;4989375;28;45377;-73
2021/09/06 10:01:18;;;;;;;;;31.00;30.00;;;;;;;;4990350;28;46244;-74
2021/09/06 10:03:43;;;;;;;;;30.75;27.75;;;;;;;;4989492;28;45407;-74
2021/09/06 10:06:09;;;;;;;;;31.50;29.75;;;;;;;;4990002;28;45483;-74
2021/09/06 10:08:35;;;;;;;;;25.50;23.25;;;;;;;;4991963;28;45447;-72
2021/09/06 10:11:10;;;;;;;;;34.00;31.25;;;;;;;;4989794;28;47000;-74
2021/09/06 10:13:39;;;;;;;;;28.25;23.00;;;;;;;;4990051;28;45525;-74
2021/09/06 10:16:04;;;;;;;;;26.75;25.50;;;;;;;;4990082;28;45401;-73
2021/09/06 10:18:37;;;;;;;;;21.75;20.50;;;;;;;;4972051;28;45626;-74
2021/09/06 10:21:10;;;;;;;;;19.00;18.00;;;;;;;;4988951;28;46139;-76
2021/09/06 10:23:45;;;;;;;;;13.75;13.75;;;;;;;;4988329;28;45464;-75
2021/09/06 10:26:11;;;;;;;;;14.00;13.75;;;;;;;;4990711;28;45335;-76
2021/09/06 10:28:36;;;;;;;;;18.50;16.00;;;;;;;;4989189;28;45209;-75
2021/09/06 10:31:02;;;;;;;;;14.00;14.00;;;;;;;;4988967;28;46358;-76
2021/09/06 10:33:27;;;;;;;;;14.00;14.00;;;;;;;;4989194;28;45425;-76
2021/09/06 10:36:12;;;;;;;;;13.25;13.00;;;;;;;;4972377;28;45576;-77
2021/09/06 10:38:42;;;;;;;;;16.00;14.00;;;;;;;;4987779;28;45368;-75
2021/09/06 10:41:08;;;;;;;;;18.50;16.75;;;;;;;;4988349;28;45349;-76
2021/09/06 10:43:41;;;;;;;;;17.75;16.75;;;;;;;;4989256;28;45441;-75
2021/09/06 10:46:06;;;;;;;;;23.00;20.25;;;;;;;;4989368;28;45527;-73
2021/09/06 10:48:34;;;;;;;;;30.00;25.25;;;;;;;;4971153;28;45656;-71
2021/09/06 10:51:00;;;;;;;;;25.50;21.50;;;;;;;;4988816;28;46193;-73
2021/09/06 10:53:26;;;;;;;;;13.50;12.50;;;;;;;;4991027;28;45293;-73
2021/09/06 10:55:53;;;;;;;;;23.00;21.50;;;;;;;;4988825;28;45338;-72
2021/09/06 10:58:22;;;;;;;;;32.00;28.00;;;;;;;;4989360;28;45625;-72
2021/09/06 11:00:52;;;;;;;;;14.00;11.75;;;;;;;;4987231;28;46041;-72
2021/09/06 11:03:18;;;;;;;;;12.50;12.00;;;;;;;;4987858;28;45450;-72
2021/09/06 11:05:51;;;;;;;;;24.00;23.75;;;;;;;;4990104;28;45262;-73
2021/09/06 11:08:21;;;;;;;;;14.00;11.25;;;;;;;;4988725;28;45361;-72
2021/09/06 11:10:48;;;;;;;;;13.25;12.00;;;;;;;;4988290;28;47178;-71
2021/09/06 11:13:13;;;;;;;;;20.75;19.50;;;;;;;;4988684;28;45419;-71
2021/09/06 11:15:38;;;;;;;;;12.25;12.25;;;;;;;;4989223;28;45469;-72
2021/09/06 11:18:05;;;;;;;;;9.50;9.50;;;;;;;;4989294;28;45440;-71
2021/09/06 11:20:31;;;;;;;;;18.75;16.50;;;;;;;;4990964;28;46009;-72
2021/09/06 11:23:00;;;;;;;;;24.00;22.00;;;;;;;;4988745;28;45431;-73
2021/09/06 11:25:26;;;;;;;;;28.75;25.25;;;;;;;;4988278;28;45453;-72
2021/09/06 11:27:52;;;;;;;;;13.00;12.00;;;;;;;;4988944;28;45441;-72
2021/09/06 11:30:24;;;;;;;;;16.75;13.75;;;;;;;;4988932;28;46158;-73
2021/09/06 11:32:50;;;;;;;;;17.00;16.00;;;;;;;;4989027;28;45639;-72
2021/09/06 11:35:15;;;;;;;;;10.00;10.00;;;;;;;;4991001;28;45473;-74
2021/09/06 11:37:41;;;;;;;;;13.75;12.75;;;;;;;;4988697;28;45494;-72
2021/09/06 11:40:06;;;;;;;;;12.00;10.75;;;;;;;;4986377;28;45335;-74
2021/09/06 11:42:31;;;;;;;;;12.25;11.25;;;;;;;;4986755;28;45461;-73
2021/09/06 11:44:57;;;;;;;;;10.50;9.50;;;;;;;;4988432;28;45435;-73
2021/09/06 11:47:23;;;;;;;;;13.00;12.00;;;;;;;;4990539;28;45406;-74
2021/09/06 11:49:55;;;;;;;;;11.00;11.00;;;;;;;;4988419;28;45592;-74
2021/09/06 11:52:27;;;;;;;;;9.50;9.50;;;;;;;;4988375;28;45460;-74
2021/09/06 11:54:52;;;;;;;;;13.00;13.00;;;;;;;;4988019;28;45335;-73
2021/09/06 11:57:24;;;;;;;;;13.25;12.00;;;;;;;;4970633;28;45501;-75
2021/09/06 11:59:53;;;;;;;;;9.50;9.50;;;;;;;;4971112;28;47297;-72
2021/09/06 12:02:19;;;;;;;;;6.75;6.75;;;;;;;;4989062;28;45287;-71
2021/09/06 12:04:44;;;;;;;;;11.00;11.00;;;;;;;;4988520;28;45297;-72
2021/09/06 12:07:14;;;;;;;;;11.75;10.50;;;;;;;;4988955;28;45457;-72
2021/09/06 12:09:40;;;;;;;;;12.00;12.00;;;;;;;;4990838;28;47102;-73
2021/09/06 12:12:15;;;;;;;;;11.25;11.25;;;;;;;;4991709;28;45307;-73
2021/09/06 12:14:44;;;;;;;;;10.75;9.00;;;;;;;;4989554;28;45370;-73
2021/09/06 12:17:09;;;;;;;;;10.75;9.50;;;;;;;;4992423;28;45416;-72
2021/09/06 12:19:39;;;;;;;;;12.00;12.00;;;;;;;;4989724;28;45328;-74
2021/09/06 12:22:12;;;;;;;;;14.25;14.25;;;;;;;;4989927;28;45573;-73
2021/09/06 12:24:37;;;;;;;;;12.25;11.00;;;;;;;;4991677;28;45367;-74
2021/09/06 12:27:09;;;;;;;;;12.00;12.00;;;;;;;;4991476;28;45605;-72
2021/09/06 12:29:35;;;;;;;;;11.50;10.25;;;;;;;;4989380;28;47143;-72
2021/09/06 12:32:00;;;;;;;;;11.50;10.50;;;;;;;;4990254;28;45516;-73
2021/09/06 12:34:26;;;;;;;;;10.50;10.00;;;;;;;;4991196;28;45370;-73
2021/09/06 12:36:53;;;;;;;;;10.00;8.75;;;;;;;;4990922;28;45408;-74
2021/09/06 12:39:18;;;;;;;;;13.00;11.25;;;;;;;;4991239;28;46410;-74
2021/09/06 12:41:43;;;;;;;;;10.75;9.25;;;;;;;;4992531;28;45325;-75
2021/09/06 12:44:08;;;;;;;;;7.25;7.25;;;;;;;;4992105;28;45308;-74
2021/09/06 12:46:34;;;;;;;;;8.00;8.00;;;;;;;;4990633;28;45554;-75
2021/09/06 12:48:59;;;;;;;;;8.25;7.50;;;;;;;;4990792;28;47077;-73
2021/09/06 12:51:24;;;;;;;;;6.75;6.75;;;;;;;;4990423;28;45473;-78
2021/09/06 12:53:49;;;;;;;;;9.75;9.75;;;;;;;;4991361;28;45378;-74
2021/09/06 12:56:15;;;;;;;;;12.00;12.00;;;;;;;;4992544;28;45640;-74
2021/09/06 12:58:40;;;;;;;;;11.25;10.25;;;;;;;;4989300;28;47141;-74
2021/09/06 13:01:06;;;;;;;;;9.00;8.50;;;;;;;;4990202;28;45502;-74
2021/09/06 13:03:31;;;;;;;;;10.00;10.00;;;;;;;;4991136;28;45492;-76
2021/09/06 13:05:57;;;;;;;;;10.00;9.25;;;;;;;;4991010;28;45343;-76
2021/09/06 13:08:22;;;;;;;;;8.50;8.50;;;;;;;;4992838;28;47063;-74
2021/09/06 13:10:50;;;;;;;;;8.50;8.50;;;;;;;;4990494;28;45451;-74
2021/09/06 13:13:15;;;;;;;;;11.25;10.75;;;;;;;;4990466;28;45350;-74
2021/09/06 13:15:40;;;;;;;;;14.25;13.75;;;;;;;;4990826;28;45554;-74
2021/09/06 13:18:05;;;;;;;;;10.00;10.00;;;;;;;;4991008;28;46924;-75
2021/09/06 13:20:31;;;;;;;;;9.25;9.25;;;;;;;;4992240;28;45251;-75
2021/09/06 13:22:56;;;;;;;;;10.00;10.00;;;;;;;;4990720;28;45403;-74
2021/09/06 13:25:21;;;;;;;;;13.00;12.00;;;;;;;;4990543;28;45562;-73
2021/09/06 13:27:46;;;;;;;;;10.25;10.25;;;;;;;;4990540;28;45384;-74
2021/09/06 13:30:14;;;;;;;;;11.50;10.00;;;;;;;;4990349;28;45381;-74
2021/09/06 13:32:39;;;;;;;;;10.50;9.25;;;;;;;;4991831;28;45469;-75
2021/09/06 13:35:05;;;;;;;;;8.75;8.75;;;;;;;;4990732;28;45554;-74
2021/09/06 13:37:30;;;;;;;;;10.00;10.00;;;;;;;;4988938;28;46145;-74
2021/09/06 13:39:55;;;;;;;;;10.75;9.50;;;;;;;;4988887;28;45519;-74
2021/09/06 13:42:20;;;;;;;;;9.75;9.25;;;;;;;;4990849;28;45504;-74
2021/09/06 13:44:45;;;;;;;;;12.25;10.00;;;;;;;;4991303;28;45408;-74
2021/09/06 13:47:11;;;;;;;;;6.75;6.75;;;;;;;;4990898;28;45321;-74
2021/09/06 13:49:36;;;;;;;;;9.75;9.75;;;;;;;;4989643;28;45399;-74
2021/09/06 13:52:01;;;;;;;;;8.50;8.50;;;;;;;;4990009;28;45410;-73
2021/09/06 13:54:26;;;;;;;;;8.00;8.00;;;;;;;;4990140;28;45418;-73
2021/09/06 13:56:51;;;;;;;;;10.25;10.25;;;;;;;;4988863;28;45507;-76
2021/09/06 13:59:18;;;;;;;;;8.50;8.50;;;;;;;;4990189;28;45411;-75
2021/09/06 14:01:43;;;;;;;;;10.75;10.25;;;;;;;;4990137;28;45477;-73
2021/09/06 14:04:09;;;;;;;;;10.00;10.00;;;;;;;;4989651;28;45279;-74
2021/09/06 14:06:34;;;;;;;;;22.50;20.75;;;;;;;;4989788;28;46075;-73
2021/09/06 14:09:00;;;;;;;;;9.50;9.00;;;;;;;;4989700;28;45362;-73
2021/09/06 14:11:25;;;;;;;;;13.75;10.00;;;;;;;;4992147;28;45403;-73